createdAt,value
2022-12-08T00:01:14.747Z,68.50
2022-12-08T00:03:42.007Z,68.60
2022-12-08T00:06:31.974Z,68.60
2022-12-08T00:09:17.713Z,69.10
2022-12-08T00:11:44.662Z,69.40
2022-12-08T00:14:11.570Z,69.50
2022-12-08T00:16:38.596Z,69.80
2022-12-08T00:19:05.570Z,69.90
2022-12-08T00:21:32.673Z,69.80
2022-12-08T00:23:59.972Z,69.30
2022-12-08T00:26:27.967Z,69.30
2022-12-08T00:28:54.867Z,69.30
2022-12-08T00:31:24.829Z,69.40
2022-12-08T00:33:51.872Z,69.40
2022-12-08T00:36:19.199Z,69.10
2022-12-08T00:38:57.628Z,69.00
2022-12-08T00:41:43.389Z,69.20
2022-12-08T00:44:11.009Z,69.40
2022-12-08T00:46:37.959Z,69.60
2022-12-08T00:49:05.505Z,69.40
2022-12-08T00:51:32.717Z,69.50
2022-12-08T00:53:59.888Z,69.30
2022-12-08T00:56:26.985Z,69.00
2022-12-08T00:58:55.700Z,68.80
2022-12-08T01:01:22.815Z,68.80
2022-12-08T01:03:49.962Z,68.80
2022-12-08T01:06:16.927Z,68.50
2022-12-08T01:08:43.837Z,68.80
2022-12-08T01:11:11.900Z,68.70
2022-12-08T01:13:38.870Z,69.50
2022-12-08T01:16:05.812Z,69.10
2022-12-08T01:18:32.771Z,69.20
2022-12-08T01:21:03.908Z,69.20
2022-12-08T01:23:30.787Z,69.20
2022-12-08T01:26:01.647Z,69.10
2022-12-08T01:28:28.537Z,69.40
2022-12-08T01:30:55.511Z,69.50
2022-12-08T01:33:22.602Z,69.30
2022-12-08T01:35:49.569Z,68.90
2022-12-08T01:38:16.441Z,69.40
2022-12-08T01:40:43.471Z,69.80
2022-12-08T01:43:17.196Z,70.50
2022-12-08T01:45:44.147Z,71.30
2022-12-08T01:48:15.640Z,71.40
2022-12-08T01:50:45.413Z,71.00
2022-12-08T01:53:38.657Z,70.70
2022-12-08T01:56:09.836Z,70.20
2022-12-08T01:58:37.670Z,70.00
2022-12-08T02:01:05.741Z,69.80
2022-12-08T02:03:37.244Z,69.70
2022-12-08T02:06:04.231Z,69.90
2022-12-08T02:08:31.589Z,69.40
2022-12-08T02:10:58.516Z,69.10
2022-12-08T02:13:25.479Z,69.00
2022-12-08T02:15:59.282Z,69.00
2022-12-08T02:18:32.945Z,69.00
2022-12-08T02:21:02.975Z,68.80
2022-12-08T02:23:29.914Z,68.60
2022-12-08T02:26:02.666Z,68.80
2022-12-08T02:28:36.156Z,69.10
2022-12-08T02:31:03.044Z,69.40
2022-12-08T02:33:39.030Z,69.40
2022-12-08T02:36:05.851Z,69.50
2022-12-08T02:38:37.896Z,69.70
2022-12-08T02:41:04.816Z,69.60
2022-12-08T02:43:36.066Z,69.80
2022-12-08T02:46:04.651Z,69.80
2022-12-08T02:48:32.830Z,69.80
2022-12-08T02:50:59.709Z,70.10
2022-12-08T02:53:27.479Z,70.70
2022-12-08T02:56:02.825Z,71.40
2022-12-08T02:58:36.886Z,71.60
2022-12-08T03:01:22.652Z,71.60
2022-12-08T03:03:58.503Z,71.90
2022-12-08T03:06:28.815Z,71.30
2022-12-08T03:08:56.428Z,71.10
2022-12-08T03:11:46.925Z,70.80
2022-12-08T03:14:14.680Z,70.30
2022-12-08T03:16:43.071Z,69.90
2022-12-08T03:19:11.276Z,69.60
2022-12-08T03:21:38.175Z,70.00
2022-12-08T03:24:06.021Z,70.50
2022-12-08T03:26:43.951Z,70.70
2022-12-08T03:29:10.843Z,71.40
2022-12-08T03:31:39.441Z,71.70
2022-12-08T03:34:06.430Z,71.80
2022-12-08T03:36:33.284Z,71.70
2022-12-08T03:39:00.222Z,71.50
2022-12-08T03:41:27.478Z,71.40
2022-12-08T03:43:55.204Z,71.10
2022-12-08T03:48:48.741Z,70.50
2022-12-08T03:51:15.757Z,70.20
2022-12-08T03:53:42.728Z,69.90
2022-12-08T03:56:15.820Z,69.60
2022-12-08T03:58:43.476Z,69.50
2022-12-08T04:01:10.843Z,69.70
2022-12-08T04:03:37.809Z,69.80
2022-12-08T04:06:04.875Z,70.00
2022-12-08T04:08:31.714Z,70.20
2022-12-08T04:10:58.694Z,70.30
2022-12-08T04:13:25.557Z,70.00
2022-12-08T04:15:52.416Z,69.80
2022-12-08T04:18:19.496Z,69.60
2022-12-08T04:20:47.665Z,69.20
2022-12-08T04:23:14.747Z,69.20
2022-12-08T04:25:41.767Z,69.60
2022-12-08T04:28:08.679Z,69.90
2022-12-08T04:30:35.749Z,69.80
2022-12-08T04:33:03.097Z,69.60
2022-12-08T04:35:30.261Z,69.30
2022-12-08T04:37:57.469Z,69.50
2022-12-08T04:40:24.532Z,69.50
2022-12-08T04:42:51.601Z,69.50
2022-12-08T04:45:21.086Z,69.30
2022-12-08T04:47:48.214Z,69.50
2022-12-08T04:50:15.309Z,69.40
2022-12-08T04:52:43.655Z,69.10
2022-12-08T04:55:10.537Z,69.40
2022-12-08T04:57:37.603Z,69.80
2022-12-08T05:00:05.524Z,70.10
2022-12-08T05:02:35.385Z,70.40
2022-12-08T05:05:02.299Z,70.40
2022-12-08T05:07:29.319Z,70.80
2022-12-08T05:09:56.285Z,71.10
2022-12-08T05:12:23.301Z,71.10
2022-12-08T05:14:50.192Z,70.70
2022-12-08T05:17:17.496Z,70.70
2022-12-08T05:19:44.485Z,70.60
2022-12-08T05:22:11.647Z,71.00
2022-12-08T05:24:42.540Z,70.40
2022-12-08T05:27:14.629Z,70.00
2022-12-08T05:29:41.532Z,70.10
2022-12-08T05:32:08.541Z,69.90
2022-12-08T05:34:35.484Z,69.80
2022-12-08T05:37:02.376Z,69.60
2022-12-08T05:39:29.247Z,69.80
2022-12-08T05:41:56.364Z,70.20
2022-12-08T05:44:23.280Z,70.10
2022-12-08T05:46:50.380Z,69.90
2022-12-08T05:49:17.483Z,70.10
2022-12-08T05:51:44.336Z,70.20
2022-12-08T05:54:12.385Z,70.10
2022-12-08T05:56:39.353Z,69.80
2022-12-08T05:59:07.164Z,70.10
2022-12-08T06:01:36.481Z,69.90
2022-12-08T06:04:04.982Z,70.00
2022-12-08T06:06:32.332Z,70.40
2022-12-08T06:08:59.254Z,70.70
2022-12-08T06:11:27.166Z,70.70
2022-12-08T06:13:54.755Z,70.50
2022-12-08T06:16:21.885Z,70.30
2022-12-08T06:18:50.297Z,70.10
2022-12-08T06:21:17.262Z,70.10
2022-12-08T06:23:44.187Z,70.70
2022-12-08T06:26:11.979Z,70.30
2022-12-08T06:28:39.609Z,70.10
2022-12-08T06:31:14.416Z,70.20
2022-12-08T06:33:41.334Z,69.80
2022-12-08T06:36:09.340Z,69.80
2022-12-08T06:38:39.329Z,69.70
2022-12-08T06:41:10.091Z,69.70
2022-12-08T06:43:37.082Z,69.50
2022-12-08T06:46:05.707Z,69.50
2022-12-08T06:48:32.811Z,69.70
2022-12-08T06:51:12.994Z,69.60
2022-12-08T06:53:40.086Z,69.60
2022-12-08T06:56:07.227Z,69.00
2022-12-08T06:58:34.227Z,69.00
2022-12-08T07:01:08.083Z,69.00
2022-12-08T07:03:35.388Z,68.70
2022-12-08T07:06:04.459Z,68.90
2022-12-08T07:08:32.232Z,69.20
2022-12-08T07:10:59.556Z,69.00
2022-12-08T07:13:27.212Z,68.60
2022-12-08T07:15:55.380Z,68.40
2022-12-08T07:18:22.391Z,68.30
2022-12-08T07:20:49.362Z,67.90
2022-12-08T07:23:16.252Z,67.70
2022-12-08T07:25:43.219Z,67.90
2022-12-08T07:28:10.795Z,67.90
2022-12-08T07:30:38.499Z,67.90
2022-12-08T07:33:08.320Z,67.40
2022-12-08T07:35:38.132Z,67.60
2022-12-08T07:38:05.089Z,67.30
2022-12-08T07:40:31.998Z,66.50
2022-12-08T07:42:59.296Z,65.50
2022-12-08T07:45:31.456Z,64.70
2022-12-08T07:47:58.849Z,64.10
2022-12-08T07:50:25.916Z,63.90
2022-12-08T07:52:52.837Z,63.40
2022-12-08T07:55:19.741Z,62.10
2022-12-08T07:57:46.621Z,61.80
2022-12-08T08:00:16.864Z,62.60
2022-12-08T08:02:44.015Z,63.90
2022-12-08T08:05:12.458Z,64.00
2022-12-08T08:07:39.914Z,64.10
2022-12-08T08:10:07.556Z,64.00
2022-12-08T08:12:34.630Z,64.10
2022-12-08T08:15:01.740Z,64.50
2022-12-08T08:17:29.480Z,64.80
2022-12-08T08:19:56.861Z,65.20
2022-12-08T08:22:24.845Z,65.40
2022-12-08T08:24:51.881Z,65.90
2022-12-08T08:27:18.866Z,65.70
2022-12-08T08:29:45.787Z,65.60
2022-12-08T08:32:12.680Z,65.70
2022-12-08T08:34:39.750Z,65.80
2022-12-08T08:37:06.673Z,65.80
2022-12-08T08:39:33.706Z,66.30
2022-12-08T08:42:00.608Z,67.60
2022-12-08T08:44:27.969Z,66.80
2022-12-08T08:46:55.026Z,66.90
2022-12-08T08:49:22.537Z,67.10
2022-12-08T08:51:49.611Z,67.30
2022-12-08T08:54:16.900Z,66.90
2022-12-08T08:56:50.247Z,66.50
2022-12-08T08:59:18.720Z,66.60
2022-12-08T09:01:46.622Z,66.40
2022-12-08T09:04:14.320Z,66.50
2022-12-08T09:06:43.803Z,66.30
2022-12-08T09:09:13.278Z,66.30
2022-12-08T09:11:41.549Z,66.20
2022-12-08T09:14:08.786Z,65.80
2022-12-08T09:16:41.770Z,65.80
2022-12-08T09:19:09.538Z,66.00
2022-12-08T09:21:36.605Z,65.90
2022-12-08T09:24:04.996Z,65.70
2022-12-08T09:26:35.469Z,65.70
2022-12-08T09:29:03.166Z,65.70
2022-12-08T09:31:30.324Z,66.50
2022-12-08T09:34:06.922Z,66.20
2022-12-08T09:39:40.730Z,66.60
2022-12-08T09:42:28.765Z,67.00
2022-12-08T09:45:14.511Z,67.00
2022-12-08T10:01:44.322Z,66.70
2022-12-08T10:04:30.193Z,67.20
2022-12-08T10:10:03.847Z,67.60
2022-12-08T10:18:25.584Z,68.50
2022-12-08T10:21:11.733Z,68.90
2022-12-08T10:23:46.206Z,68.50
2022-12-08T10:26:40.033Z,69.20
2022-12-08T10:29:27.021Z,69.60
2022-12-08T10:32:04.389Z,69.60
2022-12-08T10:37:24.867Z,71.40
2022-12-08T10:40:24.004Z,70.50
2022-12-08T10:42:58.034Z,71.60
2022-12-08T10:45:30.383Z,72.10
2022-12-08T10:48:01.210Z,72.40
2022-12-08T10:50:42.263Z,72.40
2022-12-08T11:05:36.149Z,71.60
2022-12-08T11:08:08.264Z,71.50
2022-12-08T11:10:38.287Z,71.60
2022-12-08T11:13:06.400Z,71.80
2022-12-08T11:15:36.323Z,71.80
2022-12-08T11:18:14.235Z,71.90
2022-12-08T11:20:42.914Z,71.80
2022-12-08T11:23:30.031Z,71.60
2022-12-08T11:26:01.171Z,71.20
2022-12-08T11:31:44.027Z,71.60
2022-12-08T11:34:12.072Z,71.30
2022-12-08T11:45:06.571Z,72.70
2022-12-08T11:47:56.086Z,72.50
2022-12-08T11:50:26.289Z,73.00
2022-12-08T11:53:06.656Z,72.30
2022-12-08T11:55:42.727Z,72.30
2022-12-08T11:58:14.763Z,71.90
2022-12-08T12:00:43.887Z,71.70
2022-12-08T12:06:53.801Z,72.40
2022-12-08T12:23:50.033Z,71.70
2022-12-08T12:26:18.365Z,72.10
2022-12-08T12:29:10.607Z,72.10
2022-12-08T12:31:42.030Z,71.90
2022-12-08T12:34:15.120Z,71.50
2022-12-08T12:36:52.790Z,71.30
2022-12-08T12:42:16.103Z,71.30
2022-12-08T12:44:46.774Z,70.80
2022-12-08T12:47:20.638Z,70.20
2022-12-08T12:52:45.866Z,70.20
2022-12-08T12:55:13.995Z,69.70
2022-12-08T13:03:16.123Z,68.80
2022-12-08T13:08:41.296Z,69.50
2022-12-08T13:11:11.910Z,70.00
2022-12-08T13:13:39.772Z,70.00
2022-12-08T13:16:19.180Z,69.90
2022-12-08T13:21:22.597Z,70.00
2022-12-08T13:23:51.136Z,70.50
2022-12-08T14:08:59.982Z,74.30
2022-12-08T14:11:36.939Z,74.60
2022-12-08T14:14:04.953Z,74.00
2022-12-08T14:17:06.625Z,73.80
2022-12-08T14:19:34.323Z,73.60
2022-12-08T14:22:04.268Z,73.40
2022-12-08T14:24:31.906Z,73.20
2022-12-08T14:27:03.091Z,73.60
2022-12-08T14:29:35.299Z,73.60
2022-12-08T14:32:02.371Z,73.90
2022-12-08T14:34:29.258Z,74.30
2022-12-08T14:36:58.197Z,74.40
2022-12-08T14:39:27.848Z,73.80
2022-12-08T14:42:02.170Z,74.20
2022-12-08T14:44:58.894Z,74.20
2022-12-08T14:47:30.321Z,74.60
2022-12-08T14:50:07.811Z,74.40
2022-12-08T14:52:34.944Z,74.10
2022-12-08T14:55:01.879Z,73.80
2022-12-08T14:57:36.782Z,73.80
2022-12-08T15:00:28.577Z,73.40
2022-12-08T15:03:38.358Z,73.30
2022-12-08T15:06:06.195Z,73.10
2022-12-08T15:08:33.385Z,74.20
2022-12-08T15:11:22.532Z,74.80
2022-12-08T15:13:54.112Z,74.80
2022-12-08T15:16:27.272Z,75.10
2022-12-08T15:19:05.874Z,75.00
2022-12-08T15:21:36.154Z,74.40
2022-12-08T15:24:03.681Z,74.30
2022-12-08T15:26:30.722Z,74.10
2022-12-08T15:28:58.764Z,74.00
2022-12-08T15:31:30.239Z,74.20
2022-12-08T15:33:57.682Z,74.20
2022-12-08T15:36:26.678Z,74.10
2022-12-08T15:38:56.329Z,74.00
2022-12-08T15:41:27.661Z,73.60
2022-12-08T15:43:55.441Z,73.30
2022-12-08T15:46:26.106Z,73.10
2022-12-08T16:00:52.487Z,73.80
2022-12-08T16:04:27.506Z,73.80
2022-12-08T16:09:13.227Z,73.90
2022-12-08T16:43:15.893Z,78.50
2022-12-08T17:47:03.649Z,74.90
2022-12-08T17:49:41.127Z,75.40
2022-12-08T17:52:19.578Z,76.00
2022-12-08T17:57:57.727Z,76.20
2022-12-08T18:00:35.329Z,76.10
2022-12-08T18:03:21.416Z,75.60
2022-12-08T18:05:51.146Z,75.40
2022-12-08T18:08:24.985Z,75.30
2022-12-08T18:10:55.051Z,74.90
2022-12-08T18:13:25.925Z,74.60
2022-12-08T18:15:57.818Z,74.50
2022-12-08T18:21:12.227Z,74.50
2022-12-08T18:26:33.442Z,74.10
2022-12-08T18:29:07.475Z,74.00
2022-12-08T19:49:23.286Z,74.20
2022-12-08T19:51:51.520Z,74.20
2022-12-08T19:54:27.146Z,74.00
2022-12-08T19:56:57.574Z,73.70
2022-12-08T19:59:30.928Z,73.70
2022-12-08T20:02:00.902Z,73.60
2022-12-08T20:04:33.522Z,73.60
2022-12-08T20:07:02.405Z,73.80
2022-12-08T20:09:37.807Z,74.00
2022-12-08T20:12:09.328Z,73.90
2022-12-08T20:14:41.455Z,73.50
2022-12-08T20:17:23.115Z,73.40
2022-12-08T20:20:11.016Z,73.20
2022-12-08T20:22:45.936Z,73.20
2022-12-08T20:25:13.432Z,73.20
2022-12-08T20:27:50.948Z,73.20
2022-12-08T20:30:28.846Z,73.20
2022-12-08T20:32:57.145Z,72.90
2022-12-08T20:35:24.183Z,72.80
2022-12-08T20:37:51.507Z,72.90
2022-12-08T20:40:21.280Z,72.90
2022-12-08T20:42:48.637Z,72.80
2022-12-08T21:10:18.873Z,73.90
2022-12-08T21:12:56.385Z,73.60
2022-12-08T21:15:23.590Z,73.30
2022-12-08T21:18:21.798Z,73.00
2022-12-08T21:20:49.306Z,72.70
2022-12-08T21:23:22.672Z,72.80
2022-12-08T21:25:50.297Z,72.60
2022-12-08T21:28:17.823Z,73.10
2022-12-08T21:30:45.611Z,73.40
2022-12-08T21:33:14.434Z,73.40
2022-12-08T21:35:41.853Z,73.40
2022-12-08T21:38:13.738Z,73.40
2022-12-08T21:40:41.220Z,73.60
2022-12-08T21:43:08.696Z,73.50
2022-12-08T21:45:36.148Z,73.30
2022-12-08T21:48:11.432Z,73.40
2022-12-08T21:50:39.346Z,73.40
2022-12-08T21:53:06.773Z,73.20
2022-12-08T21:55:34.207Z,73.20
2022-12-08T21:58:03.360Z,73.00
2022-12-08T22:00:30.778Z,73.30
2022-12-08T22:02:59.410Z,73.30
2022-12-08T22:05:27.984Z,73.10
2022-12-08T22:10:42.621Z,73.70
2022-12-08T22:13:13.561Z,74.30
2022-12-08T22:15:43.303Z,74.80
2022-12-08T22:23:41.062Z,74.70
2022-12-08T22:26:08.717Z,74.40
2022-12-08T22:28:43.306Z,74.10
2022-12-08T22:31:13.085Z,73.70
2022-12-08T22:36:25.773Z,72.90
2022-12-08T22:38:54.290Z,72.30
2022-12-08T22:41:22.213Z,71.60
2022-12-08T22:43:49.916Z,71.30
2022-12-08T22:46:20.201Z,71.60
2022-12-08T22:48:47.932Z,72.00
2022-12-08T22:51:16.496Z,72.40
2022-12-08T22:56:20.349Z,72.80
2022-12-08T22:58:48.006Z,73.20
2022-12-08T23:01:22.233Z,73.40
2022-12-08T23:03:50.989Z,73.40
2022-12-08T23:06:20.419Z,73.60
2022-12-08T23:09:02.292Z,73.60
2022-12-08T23:14:04.535Z,74.40
2022-12-08T23:16:31.922Z,74.60
2022-12-08T23:18:59.673Z,74.70
2022-12-08T23:21:27.629Z,75.20
2022-12-08T23:23:55.139Z,75.40
2022-12-08T23:26:24.755Z,75.50
2022-12-08T23:28:52.026Z,75.60
2022-12-08T23:31:42.280Z,75.40
2022-12-08T23:34:10.792Z,74.60
2022-12-08T23:36:40.362Z,74.80
2022-12-08T23:39:11.389Z,74.60
2022-12-08T23:41:38.733Z,75.00
2022-12-08T23:44:06.025Z,75.00
2022-12-08T23:46:45.529Z,74.40
2022-12-08T23:49:13.814Z,74.20
2022-12-08T23:51:41.088Z,73.80
2022-12-08T23:54:09.438Z,73.90
2022-12-08T23:56:36.908Z,73.90
2022-12-08T23:59:05.665Z,73.20
